Terminal Aerodrome Forecast
Issued by NWS

Home | Current Version | Previous Version | Text Only | Print | Product List | Glossary On
Versions: 1 2 3 4 5 6 7 8 9 10 11 12 13 14 15
000
FTUS43 KLSX 021025 AAA
TAFCPS
TAF AMD
KCPS 021025Z 0210/0306 VRB03KT 5SM BR SKC
      TEMPO 0210/0212 1/2SM FG
     FM021400 19004KT P6SM BKN250
     FM021700 18007KT P6SM SCT050=

USA.gov is the U.S. government's official web portal to all federal, state and local government web resources and services.